Time;durP1;ratioP1;P1;durP2;ratioP2;P2;SDS_P1;SDS_P2;PMS_P1;PMS_P2;Temp;Humidity;BMP_temperature;BMP_pressure;BME280_temperature;BME280_humidity;BME280_pressure;Samples;Min_cycle;Max_cycle;Signal;HPM_P1;HPM_P2
2022/06/18 00:00:21;;;;;;;4.05;2.50;;;;;;;;;;4996120;28;20056;-73
2022/06/18 00:02:47;;;;;;;4.65;2.05;;;;;;;;;;4996462;28;20034;-73
2022/06/18 00:05:15;;;;;;;3.92;2.42;;;;;;;;;;4996121;28;20018;-74
2022/06/18 00:07:46;;;;;;;5.65;2.80;;;;;;;;;;4994887;28;20050;-73
2022/06/18 00:10:16;;;;;;;2.92;2.13;;;;;;;;;;4996423;28;20030;-73
2022/06/18 00:15:29;;;;;;;3.38;2.40;;;;;;;;;;4996709;28;20402;-74
2022/06/18 00:17:55;;;;;;;4.55;2.40;;;;;;;;;;4996204;28;20034;-73
2022/06/18 00:20:23;;;;;;;3.70;2.35;;;;;;;;;;4996020;28;20034;-73
2022/06/18 00:22:51;;;;;;;2.50;2.17;;;;;;;;;;4984627;28;20031;-74
2022/06/18 00:25:30;;;;;;;3.65;1.98;;;;;;;;;;4976458;28;20074;-73
2022/06/18 00:27:55;;;;;;;5.35;2.30;;;;;;;;;;4976836;28;20065;-73
2022/06/18 00:30:23;;;;;;;5.68;2.95;;;;;;;;;;4975017;28;20078;-73
2022/06/18 00:32:49;;;;;;;7.35;2.53;;;;;;;;;;4975527;28;20038;-74
2022/06/18 00:35:15;;;;;;;3.65;2.40;;;;;;;;;;4976439;28;20029;-73
2022/06/18 00:37:43;;;;;;;5.60;3.20;;;;;;;;;;4975381;28;20085;-74
2022/06/18 00:40:14;;;;;;;3.13;2.28;;;;;;;;;;4981142;28;20031;-72
2022/06/18 00:42:42;;;;;;;6.47;2.30;;;;;;;;;;4978197;28;20090;-72
2022/06/18 00:45:14;;;;;;;6.25;2.78;;;;;;;;;;4975904;28;20121;-74
2022/06/18 00:47:51;;;;;;;4.45;2.67;;;;;;;;;;4975739;28;20240;-73
2022/06/18 00:50:19;;;;;;;7.93;2.75;;;;;;;;;;4976399;28;20101;-73
2022/06/18 00:52:53;;;;;;;2.60;2.38;;;;;;;;;;4975185;28;20061;-73
2022/06/18 00:55:34;;;;;;;2.78;2.38;;;;;;;;;;4974826;28;20058;-73
2022/06/18 00:58:14;;;;;;;3.05;2.72;;;;;;;;;;4975859;28;20029;-72
2022/06/18 01:00:42;;;;;;;5.30;2.25;;;;;;;;;;4972158;28;20277;-73
2022/06/18 01:03:25;;;;;;;6.05;2.25;;;;;;;;;;4971976;28;20494;-73
2022/06/18 01:05:52;;;;;;;3.58;2.75;;;;;;;;;;4971685;28;20030;-73
2022/06/18 01:08:23;;;;;;;6.57;2.30;;;;;;;;;;4971814;28;20042;-74
2022/06/18 01:10:52;;;;;;;5.10;2.53;;;;;;;;;;4971953;28;20034;-73
2022/06/18 01:13:23;;;;;;;2.33;2.13;;;;;;;;;;4973189;28;20054;-74
2022/06/18 01:15:49;;;;;;;5.87;2.37;;;;;;;;;;4971916;28;20026;-72
2022/06/18 01:18:15;;;;;;;2.83;2.45;;;;;;;;;;4971642;28;20054;-73
2022/06/18 01:21:02;;;;;;;3.72;2.28;;;;;;;;;;4971481;28;20034;-73
2022/06/18 01:23:47;;;;;;;9.80;2.50;;;;;;;;;;4989870;28;20471;-74
2022/06/18 01:26:13;;;;;;;3.83;2.55;;;;;;;;;;4990815;28;20078;-73
2022/06/18 01:28:39;;;;;;;3.78;2.35;;;;;;;;;;5007171;28;20461;-72
2022/06/18 01:31:04;;;;;;;6.57;3.28;;;;;;;;;;4990471;28;20258;-72
2022/06/18 01:33:34;;;;;;;7.25;2.70;;;;;;;;;;4992444;28;20071;-74
2022/06/18 01:36:03;;;;;;;7.32;2.75;;;;;;;;;;4992019;28;20117;-73
2022/06/18 01:38:29;;;;;;;3.28;2.60;;;;;;;;;;4992236;28;20072;-74
2022/06/18 01:44:12;;;;;;;2.63;2.30;;;;;;;;;;4992402;28;20089;-75
2022/06/18 01:46:42;;;;;;;5.05;2.58;;;;;;;;;;5006705;28;20480;-73
2022/06/18 01:49:11;;;;;;;5.07;2.53;;;;;;;;;;4990333;28;20109;-73
2022/06/18 01:51:40;;;;;;;4.82;2.30;;;;;;;;;;4990416;28;20108;-73
2022/06/18 01:54:14;;;;;;;3.05;2.20;;;;;;;;;;4990754;28;20026;-72
2022/06/18 01:56:44;;;;;;;3.60;2.17;;;;;;;;;;4992159;28;20026;-74
2022/06/18 01:59:15;;;;;;;3.35;2.55;;;;;;;;;;4990574;28;20030;-74
2022/06/18 02:01:43;;;;;;;4.90;2.40;;;;;;;;;;4990452;28;20037;-75
2022/06/18 02:04:09;;;;;;;2.53;1.95;;;;;;;;;;4990257;28;20022;-72
2022/06/18 02:06:37;;;;;;;3.33;2.33;;;;;;;;;;4991426;28;20113;-72
2022/06/18 02:09:08;;;;;;;2.67;2.20;;;;;;;;;;4989646;28;20030;-73
2022/06/18 02:11:34;;;;;;;3.00;2.30;;;;;;;;;;4989745;28;20018;-73
2022/06/18 02:14:04;;;;;;;5.75;2.47;;;;;;;;;;4991909;28;20022;-74
2022/06/18 02:16:41;;;;;;;2.60;1.92;;;;;;;;;;4991466;28;20026;-73
2022/06/18 02:19:08;;;;;;;2.53;2.30;;;;;;;;;;4991214;28;20030;-73
2022/06/18 02:21:40;;;;;;;3.00;2.22;;;;;;;;;;4989636;28;20035;-74
2022/06/18 02:24:06;;;;;;;5.47;2.40;;;;;;;;;;4970423;28;20416;-73
2022/06/18 02:26:32;;;;;;;2.97;2.22;;;;;;;;;;4971804;28;20102;-74
2022/06/18 02:28:59;;;;;;;7.82;2.47;;;;;;;;;;4970606;28;20475;-73
2022/06/18 02:31:29;;;;;;;3.63;2.42;;;;;;;;;;4971416;28;20046;-73
2022/06/18 02:33:58;;;;;;;4.03;2.75;;;;;;;;;;4970371;28;20034;-74
2022/06/18 02:36:39;;;;;;;3.40;2.38;;;;;;;;;;4953962;28;20061;-73
2022/06/18 02:39:20;;;;;;;4.40;2.08;;;;;;;;;;4970109;28;20054;-73
2022/06/18 02:41:46;;;;;;;8.60;2.28;;;;;;;;;;4969993;28;20035;-73
2022/06/18 02:44:13;;;;;;;2.88;2.08;;;;;;;;;;4969854;28;20479;-74
2022/06/18 02:46:40;;;;;;;3.63;2.92;;;;;;;;;;4970210;28;20034;-73
2022/06/18 02:49:08;;;;;;;4.32;2.38;;;;;;;;;;4971120;28;20451;-75
2022/06/18 02:51:35;;;;;;;2.92;2.20;;;;;;;;;;4969698;28;20023;-73
2022/06/18 02:54:02;;;;;;;2.75;1.98;;;;;;;;;;4971392;28;20106;-72
2022/06/18 02:56:27;;;;;;;5.72;2.17;;;;;;;;;;4970958;28;20030;-73
2022/06/18 02:58:53;;;;;;;6.25;2.05;;;;;;;;;;4971399;28;20029;-74
2022/06/18 03:01:22;;;;;;;4.90;2.55;;;;;;;;;;4969466;28;20031;-73
2022/06/18 03:03:50;;;;;;;4.47;2.38;;;;;;;;;;4971115;28;20042;-73
2022/06/18 03:06:19;;;;;;;6.88;2.35;;;;;;;;;;4970873;28;20027;-73
2022/06/18 03:08:46;;;;;;;3.22;1.95;;;;;;;;;;4971093;28;20545;-72
2022/06/18 03:13:57;;;;;;;2.60;2.13;;;;;;;;;;4971278;28;20389;-74
2022/06/18 03:16:23;;;;;;;8.48;2.45;;;;;;;;;;4971207;28;20030;-74
2022/06/18 03:18:52;;;;;;;2.33;2.08;;;;;;;;;;4970800;28;20077;-74
2022/06/18 03:21:23;;;;;;;4.47;2.30;;;;;;;;;;4953095;28;20646;-74
2022/06/18 03:23:49;;;;;;;3.50;2.03;;;;;;;;;;4985720;28;20077;-74
2022/06/18 03:26:16;;;;;;;4.28;2.10;;;;;;;;;;4985421;28;20494;-74
2022/06/18 03:28:42;;;;;;;2.38;2.05;;;;;;;;;;4969355;28;20474;-74
2022/06/18 03:31:09;;;;;;;2.13;1.67;;;;;;;;;;4970484;28;20045;-73
2022/06/18 03:33:34;;;;;;;4.03;1.98;;;;;;;;;;4970860;28;20043;-73
2022/06/18 03:36:02;;;;;;;4.35;2.40;;;;;;;;;;4969269;28;20096;-73
2022/06/18 03:38:28;;;;;;;4.18;1.88;;;;;;;;;;4970681;28;20134;-73
2022/06/18 03:40:54;;;;;;;6.30;4.65;;;;;;;;;;4970772;28;20027;-74
2022/06/18 03:43:21;;;;;;;4.30;2.33;;;;;;;;;;4969335;28;20039;-73
2022/06/18 03:45:50;;;;;;;4.15;1.90;;;;;;;;;;4969395;28;20035;-73
2022/06/18 03:48:27;;;;;;;2.15;1.85;;;;;;;;;;4970346;28;20109;-73
2022/06/18 03:50:54;;;;;;;2.35;2.10;;;;;;;;;;4969524;28;20034;-72
2022/06/18 03:53:19;;;;;;;5.45;1.95;;;;;;;;;;4970440;28;20042;-73
2022/06/18 03:55:45;;;;;;;3.80;2.55;;;;;;;;;;4970681;28;20035;-73
2022/06/18 03:58:11;;;;;;;4.93;2.45;;;;;;;;;;4970327;28;20035;-73
2022/06/18 04:00:37;;;;;;;2.95;2.20;;;;;;;;;;4970494;28;20511;-73
2022/06/18 04:03:03;;;;;;;2.55;2.35;;;;;;;;;;4969206;28;20035;-73
2022/06/18 04:05:30;;;;;;;2.95;2.63;;;;;;;;;;4970518;28;20034;-73
2022/06/18 04:07:55;;;;;;;4.05;2.17;;;;;;;;;;4970812;28;20039;-73
2022/06/18 04:10:21;;;;;;;2.97;2.08;;;;;;;;;;4970709;28;20052;-72
2022/06/18 04:12:47;;;;;;;6.28;2.58;;;;;;;;;;4985900;28;20391;-72
2022/06/18 04:15:14;;;;;;;4.20;2.25;;;;;;;;;;4969287;28;20035;-73
2022/06/18 04:17:41;;;;;;;3.53;2.50;;;;;;;;;;4969265;28;20113;-72
2022/06/18 04:20:14;;;;;;;14.10;3.22;;;;;;;;;;4970637;28;20459;-73
2022/06/18 04:22:39;;;;;;;2.70;2.42;;;;;;;;;;4979479;28;20066;-74
2022/06/18 04:25:06;;;;;;;5.22;2.88;;;;;;;;;;4988464;28;20140;-73
2022/06/18 04:27:31;;;;;;;7.63;2.40;;;;;;;;;;4989441;28;20034;-73
2022/06/18 04:29:56;;;;;;;9.10;2.80;;;;;;;;;;4990181;28;20360;-73
2022/06/18 04:32:22;;;;;;;3.17;2.33;;;;;;;;;;4989305;28;20050;-73
2022/06/18 04:34:48;;;;;;;4.45;2.63;;;;;;;;;;4992595;28;20395;-75
2022/06/18 04:37:13;;;;;;;4.30;2.67;;;;;;;;;;4991807;28;20046;-76
2022/06/18 04:39:39;;;;;;;3.53;2.40;;;;;;;;;;4993577;28;20045;-74
2022/06/18 04:42:04;;;;;;;3.28;2.13;;;;;;;;;;5008482;28;20092;-75
2022/06/18 04:44:32;;;;;;;4.45;2.40;;;;;;;;;;4991759;28;20034;-75
2022/06/18 04:46:57;;;;;;;6.03;3.92;;;;;;;;;;4975919;28;20030;-77
2022/06/18 04:49:24;;;;;;;5.43;2.50;;;;;;;;;;4995885;28;20056;-76
2022/06/18 04:51:49;;;;;;;8.10;2.40;;;;;;;;;;5002979;28;20061;-75
2022/06/18 04:54:15;;;;;;;7.25;2.33;;;;;;;;;;4992038;28;20074;-75
2022/06/18 04:56:40;;;;;;;5.43;4.28;;;;;;;;;;4993309;28;20125;-74
2022/06/18 04:59:06;;;;;;;4.38;2.45;;;;;;;;;;4993238;28;20096;-75
2022/06/18 05:01:31;;;;;;;4.10;2.65;;;;;;;;;;4993192;28;20540;-75
2022/06/18 05:03:57;;;;;;;2.47;2.13;;;;;;;;;;4991553;28;20062;-75
2022/06/18 05:06:23;;;;;;;3.03;2.03;;;;;;;;;;4992753;28;20037;-75
2022/06/18 05:08:49;;;;;;;3.42;2.33;;;;;;;;;;4991362;28;20030;-76
2022/06/18 05:11:14;;;;;;;3.65;2.40;;;;;;;;;;4992643;28;20030;-75
2022/06/18 05:13:40;;;;;;;3.88;1.92;;;;;;;;;;4991018;28;20045;-75
2022/06/18 05:16:08;;;;;;;4.07;2.17;;;;;;;;;;4992764;28;20490;-76
2022/06/18 05:18:35;;;;;;;4.60;2.30;;;;;;;;;;4990973;28;20034;-75
2022/06/18 05:21:01;;;;;;;4.65;2.35;;;;;;;;;;4991480;28;20034;-76
2022/06/18 05:23:28;;;;;;;3.65;2.50;;;;;;;;;;4990743;28;20058;-75
2022/06/18 05:25:57;;;;;;;2.70;1.95;;;;;;;;;;4992838;28;20085;-75
2022/06/18 05:28:23;;;;;;;2.50;2.30;;;;;;;;;;4992841;28;20042;-77
2022/06/18 05:30:50;;;;;;;4.72;2.30;;;;;;;;;;4993419;28;20089;-74
2022/06/18 05:33:16;;;;;;;2.30;2.10;;;;;;;;;;4991037;28;20168;-75
2022/06/18 05:35:42;;;;;;;4.55;2.10;;;;;;;;;;4992652;28;20451;-76
2022/06/18 05:38:15;;;;;;;8.15;2.88;;;;;;;;;;4991225;28;20034;-76
2022/06/18 05:40:41;;;;;;;5.40;2.28;;;;;;;;;;4991036;28;20138;-75
2022/06/18 05:43:06;;;;;;;4.45;2.00;;;;;;;;;;4992269;28;20509;-74
2022/06/18 05:45:32;;;;;;;4.32;2.22;;;;;;;;;;4990196;28;20032;-75
2022/06/18 05:47:57;;;;;;;6.63;2.30;;;;;;;;;;4992176;28;20042;-74
2022/06/18 05:50:26;;;;;;;2.92;2.40;;;;;;;;;;4991156;28;20022;-76
2022/06/18 05:52:53;;;;;;;3.67;2.10;;;;;;;;;;4992060;28;20033;-74
2022/06/18 05:55:22;;;;;;;4.20;2.35;;;;;;;;;;4992521;28;20065;-75
2022/06/18 05:57:53;;;;;;;2.70;2.15;;;;;;;;;;4990898;28;20390;-75
2022/06/18 06:00:23;;;;;;;4.85;2.55;;;;;;;;;;4990681;28;20038;-74
2022/06/18 06:02:48;;;;;;;4.25;2.13;;;;;;;;;;5006966;28;20049;-76
2022/06/18 06:05:15;;;;;;;5.32;2.80;;;;;;;;;;4990840;28;20022;-76
2022/06/18 06:07:44;;;;;;;6.15;2.17;;;;;;;;;;4991722;28;20034;-76
2022/06/18 06:13:24;;;;;;;4.35;2.55;;;;;;;;;;4993125;28;20458;-76
2022/06/18 06:15:51;;;;;;;3.88;2.08;;;;;;;;;;4990466;28;20050;-75
2022/06/18 06:18:18;;;;;;;2.65;2.30;;;;;;;;;;4990829;28;20022;-76
2022/06/18 06:20:50;;;;;;;5.90;2.53;;;;;;;;;;4991562;28;20022;-75
2022/06/18 06:23:16;;;;;;;9.00;2.22;;;;;;;;;;4976419;28;20030;-75
2022/06/18 06:25:45;;;;;;;4.25;1.95;;;;;;;;;;4971308;28;20023;-75
2022/06/18 06:28:22;;;;;;;2.65;2.38;;;;;;;;;;4971036;28;20041;-76
2022/06/18 06:30:49;;;;;;;5.03;2.38;;;;;;;;;;4972426;28;20050;-75
2022/06/18 06:33:15;;;;;;;7.55;2.38;;;;;;;;;;4970557;28;20035;-72
2022/06/18 06:35:43;;;;;;;5.50;2.00;;;;;;;;;;4970422;28;20248;-71
2022/06/18 06:38:10;;;;;;;9.02;2.53;;;;;;;;;;4971567;28;20045;-72
2022/06/18 06:40:36;;;;;;;4.45;2.28;;;;;;;;;;4969936;28;20352;-72
2022/06/18 06:43:03;;;;;;;4.65;2.60;;;;;;;;;;4971654;28;20050;-72
2022/06/18 06:45:32;;;;;;;5.10;2.75;;;;;;;;;;4971372;28;20038;-71
2022/06/18 06:47:59;;;;;;;5.32;2.10;;;;;;;;;;4971839;28;20030;-72
2022/06/18 06:50:27;;;;;;;5.32;2.17;;;;;;;;;;4971434;28;20042;-72
2022/06/18 06:52:55;;;;;;;4.07;2.35;;;;;;;;;;4971752;28;20070;-72
2022/06/18 06:58:12;;;;;;;2.90;2.30;;;;;;;;;;4971564;28;20471;-73
2022/06/18 07:00:45;;;;;;;1.80;1.70;;;;;;;;;;4970925;28;20034;-73
2022/06/18 07:03:13;;;;;;;5.70;2.42;;;;;;;;;;4954214;28;20039;-72
2022/06/18 07:05:39;;;;;;;4.20;1.80;;;;;;;;;;4969484;28;20030;-73
2022/06/18 07:08:05;;;;;;;5.90;2.13;;;;;;;;;;4971128;28;20046;-73
2022/06/18 07:10:30;;;;;;;2.53;1.90;;;;;;;;;;4969361;28;20022;-72
2022/06/18 07:12:56;;;;;;;2.50;2.00;;;;;;;;;;4969613;28;20388;-72
2022/06/18 07:15:21;;;;;;;3.38;2.17;;;;;;;;;;4970919;28;20038;-72
2022/06/18 07:17:47;;;;;;;3.20;1.92;;;;;;;;;;4969909;28;20045;-73
2022/06/18 07:20:15;;;;;;;2.35;2.15;;;;;;;;;;4970732;28;20554;-72
2022/06/18 07:22:41;;;;;;;2.45;1.80;;;;;;;;;;4964291;28;20069;-72
2022/06/18 07:25:08;;;;;;;2.08;1.95;;;;;;;;;;4988852;28;20359;-73
2022/06/18 07:27:35;;;;;;;3.45;2.00;;;;;;;;;;4988941;28;20035;-74
2022/06/18 07:30:00;;;;;;;6.07;2.30;;;;;;;;;;4989140;28;20391;-73
2022/06/18 07:32:26;;;;;;;2.50;1.58;;;;;;;;;;4989796;28;20054;-72
2022/06/18 07:34:56;;;;;;;5.90;1.70;;;;;;;;;;4988547;28;20030;-72
2022/06/18 07:37:22;;;;;;;2.65;1.73;;;;;;;;;;4989937;28;20811;-72
2022/06/18 07:39:48;;;;;;;3.53;1.65;;;;;;;;;;4989936;28;20026;-72
2022/06/18 07:42:18;;;;;;;7.97;1.92;;;;;;;;;;4990321;28;20022;-72
2022/06/18 07:44:44;;;;;;;4.13;1.88;;;;;;;;;;5004726;28;20026;-71
2022/06/18 07:47:16;;;;;;;5.28;2.00;;;;;;;;;;4989867;28;20081;-72
2022/06/18 07:49:44;;;;;;;4.82;1.75;;;;;;;;;;4988361;28;20068;-74
2022/06/18 07:52:12;;;;;;;4.85;1.73;;;;;;;;;;4988708;28;20438;-73
2022/06/18 07:54:38;;;;;;;1.90;1.80;;;;;;;;;;4988355;28;20117;-73
2022/06/18 07:57:04;;;;;;;3.60;2.20;;;;;;;;;;4989678;28;20549;-73
2022/06/18 07:59:31;;;;;;;4.60;1.95;;;;;;;;;;4988328;28;20038;-72
2022/06/18 08:01:56;;;;;;;4.22;1.63;;;;;;;;;;4988104;28;20050;-71
2022/06/18 08:04:22;;;;;;;3.83;1.58;;;;;;;;;;4988519;28;20026;-74
2022/06/18 08:06:47;;;;;;;3.92;1.95;;;;;;;;;;4989542;28;20467;-73
2022/06/18 08:09:14;;;;;;;1.60;1.50;;;;;;;;;;4992139;28;20046;-72
2022/06/18 08:11:41;;;;;;;1.80;1.38;;;;;;;;;;4994460;28;20041;-74
2022/06/18 08:14:07;;;;;;;2.25;1.60;;;;;;;;;;4992583;28;20030;-73
2022/06/18 08:16:32;;;;;;;1.48;1.30;;;;;;;;;;5008746;28;20030;-73
2022/06/18 08:18:58;;;;;;;3.05;1.42;;;;;;;;;;4993665;28;20105;-72
2022/06/18 08:21:42;;;;;;;2.65;1.60;;;;;;;;;;4993301;28;20478;-76
2022/06/18 08:24:15;;;;;;;2.67;1.20;;;;;;;;;;4973141;28;20503;-75
2022/06/18 08:26:44;;;;;;;1.98;1.67;;;;;;;;;;4972810;28;20042;-75
2022/06/18 08:29:14;;;;;;;2.92;1.42;;;;;;;;;;4974815;28;20104;-76
2022/06/18 08:31:39;;;;;;;2.28;1.50;;;;;;;;;;4972677;28;20046;-74
2022/06/18 08:34:05;;;;;;;3.47;1.40;;;;;;;;;;4956464;28;20027;-74
2022/06/18 08:36:33;;;;;;;1.63;1.25;;;;;;;;;;4973880;28;20380;-73
2022/06/18 08:38:59;;;;;;;2.60;1.52;;;;;;;;;;4972938;28;20031;-74
2022/06/18 08:41:48;;;;;;;1.75;1.63;;;;;;;;;;4956500;28;20125;-73
2022/06/18 08:44:36;;;;;;;1.75;1.10;;;;;;;;;;4973957;28;20026;-74
2022/06/18 08:47:08;;;;;;;4.43;1.35;;;;;;;;;;4972666;28;20036;-74
2022/06/18 08:50:10;;;;;;;29.77;5.30;;;;;;;;;;4972610;28;20145;-75
2022/06/18 08:52:54;;;;;;;1.98;1.30;;;;;;;;;;4973649;28;20030;-75
2022/06/18 08:55:43;;;;;;;3.58;2.20;;;;;;;;;;4972014;28;20023;-74
2022/06/18 08:58:38;;;;;;;2.88;1.40;;;;;;;;;;4972771;28;20501;-74
2022/06/18 09:01:09;;;;;;;2.10;1.05;;;;;;;;;;4973482;28;20391;-74
2022/06/18 09:04:09;;;;;;;2.55;1.33;;;;;;;;;;4973155;28;20027;-74
2022/06/18 09:06:59;;;;;;;1.40;1.30;;;;;;;;;;4972605;28;20023;-73
2022/06/18 09:09:28;;;;;;;4.50;1.48;;;;;;;;;;4972002;28;20052;-73
2022/06/18 09:12:23;;;;;;;2.70;1.17;;;;;;;;;;4972944;28;20431;-74
2022/06/18 09:14:57;;;;;;;1.05;1.00;;;;;;;;;;4971958;28;20394;-74
2022/06/18 09:18:06;;;;;;;2.55;1.10;;;;;;;;;;4971306;28;20125;-73
2022/06/18 09:20:46;;;;;;;1.17;1.00;;;;;;;;;;4971249;28;20039;-73
2022/06/18 09:23:40;;;;;;;2.42;1.50;;;;;;;;;;4985545;28;20033;-74
2022/06/18 09:26:13;;;;;;;1.73;1.13;;;;;;;;;;4992681;28;20509;-74
2022/06/18 09:28:50;;;;;;;5.47;1.13;;;;;;;;;;5006594;28;20057;-74
2022/06/18 09:31:26;;;;;;;1.38;1.20;;;;;;;;;;4991744;28;20065;-74
2022/06/18 09:33:58;;;;;;;4.68;1.33;;;;;;;;;;4991602;28;20027;-75
2022/06/18 09:36:33;;;;;;;2.47;1.30;;;;;;;;;;4991471;28;20031;-74
2022/06/18 09:39:08;;;;;;;2.88;1.08;;;;;;;;;;4991911;28;20601;-74
2022/06/18 09:42:05;;;;;;;4.18;1.55;;;;;;;;;;4991670;28;20102;-74
2022/06/18 09:44:39;;;;;;;4.05;1.00;;;;;;;;;;4990282;28;20541;-74
2022/06/18 09:47:13;;;;;;;1.90;1.00;;;;;;;;;;4990378;28;20113;-74
2022/06/18 09:49:40;;;;;;;1.85;0.90;;;;;;;;;;4990406;28;20033;-75
2022/06/18 09:52:12;;;;;;;2.80;1.15;;;;;;;;;;4991740;28;20089;-75
2022/06/18 09:54:45;;;;;;;1.27;0.85;;;;;;;;;;4990241;28;20410;-75
2022/06/18 09:57:13;;;;;;;3.90;1.02;;;;;;;;;;4991808;28;20045;-75
2022/06/18 10:00:01;;;;;;;3.28;1.58;;;;;;;;;;4991653;28;20068;-74
2022/06/18 10:02:29;;;;;;;1.10;1.00;;;;;;;;;;4990219;28;20026;-75
2022/06/18 10:07:44;;;;;;;1.83;0.73;;;;;;;;;;4991092;28;20037;-73
2022/06/18 10:10:17;;;;;;;4.22;1.10;;;;;;;;;;4991324;28;20018;-74
2022/06/18 10:12:50;;;;;;;1.20;1.10;;;;;;;;;;4989668;28;20567;-74
2022/06/18 10:15:17;;;;;;;3.50;0.90;;;;;;;;;;4991364;28;20022;-74
2022/06/18 10:18:07;;;;;;;1.10;0.85;;;;;;;;;;4990962;28;20068;-75
2022/06/18 10:20:38;;;;;;;3.30;0.77;;;;;;;;;;4990736;28;20034;-75
2022/06/18 10:23:26;;;;;;;2.05;1.10;;;;;;;;;;4975952;28;20487;-74
2022/06/18 10:25:51;;;;;;;1.05;0.80;;;;;;;;;;4971511;28;20454;-74
2022/06/18 10:28:41;;;;;;;1.05;0.90;;;;;;;;;;4971435;28;20030;-75
2022/06/18 10:31:11;;;;;;;2.20;1.00;;;;;;;;;;4971165;28;20043;-74
2022/06/18 10:33:36;;;;;;;0.57;0.57;;;;;;;;;;4969898;28;20042;-73
2022/06/18 10:36:44;;;;;;;1.80;1.00;;;;;;;;;;4970378;28;20027;-74
2022/06/18 10:39:32;;;;;;;1.45;1.10;;;;;;;;;;4971838;28;20431;-74
2022/06/18 10:42:14;;;;;;;1.17;0.80;;;;;;;;;;4970003;28;20122;-75
2022/06/18 10:45:07;;;;;;;1.92;0.82;;;;;;;;;;4969966;28;20057;-74
2022/06/18 10:47:37;;;;;;;1.55;0.73;;;;;;;;;;4971196;28;20365;-74
2022/06/18 10:50:08;;;;;;;1.63;1.33;;;;;;;;;;4970114;28;20038;-72
2022/06/18 10:52:35;;;;;;;3.30;1.10;;;;;;;;;;4971193;28;20483;-74
2022/06/18 10:55:33;;;;;;;1.75;1.00;;;;;;;;;;4971629;28;20042;-73
2022/06/18 10:58:15;;;;;;;1.30;0.98;;;;;;;;;;4943220;28;20070;-73
2022/06/18 11:00:54;;;;;;;2.13;1.20;;;;;;;;;;4969862;28;20023;-73
2022/06/18 11:03:22;;;;;;;1.50;0.80;;;;;;;;;;4956131;28;20035;-73
2022/06/18 11:05:49;;;;;;;1.60;1.08;;;;;;;;;;4970023;28;20081;-73
2022/06/18 11:08:28;;;;;;;1.25;1.05;;;;;;;;;;4971331;28;20034;-73
2022/06/18 11:10:57;;;;;;;0.80;0.80;;;;;;;;;;4969600;28;20118;-72
2022/06/18 11:13:29;;;;;;;2.08;0.90;;;;;;;;;;4969631;28;20144;-73
2022/06/18 11:16:28;;;;;;;1.92;0.80;;;;;;;;;;4969463;28;20030;-74
2022/06/18 11:18:56;;;;;;;2.05;1.20;;;;;;;;;;4970512;28;20086;-72
2022/06/18 11:21:39;;;;;;;1.55;1.05;;;;;;;;;;4969399;28;20111;-73
2022/06/18 11:24:10;;;;;;;3.65;1.00;;;;;;;;;;4969354;28;20348;-73
2022/06/18 11:26:40;;;;;;;1.92;1.20;;;;;;;;;;4969235;28;20117;-71
2022/06/18 11:29:18;;;;;;;3.83;1.08;;;;;;;;;;4970813;28;20061;-73
2022/06/18 11:31:51;;;;;;;1.27;0.90;;;;;;;;;;4968743;28;20063;-72
2022/06/18 11:34:27;;;;;;;1.85;1.10;;;;;;;;;;4969069;28;20033;-72
2022/06/18 11:36:57;;;;;;;5.35;1.15;;;;;;;;;;4969491;28;20055;-73
2022/06/18 11:39:42;;;;;;;2.55;1.13;;;;;;;;;;4970586;28;20460;-73
2022/06/18 11:42:26;;;;;;;1.70;1.33;;;;;;;;;;4970098;28;20038;-72
2022/06/18 11:45:17;;;;;;;4.78;1.10;;;;;;;;;;4969611;28;20552;-73
2022/06/18 11:47:56;;;;;;;2.45;1.63;;;;;;;;;;4970168;28;20049;-73
2022/06/18 11:50:23;;;;;;;2.70;1.67;;;;;;;;;;4970607;28;20138;-73
2022/06/18 11:53:11;;;;;;;1.38;1.20;;;;;;;;;;4968369;28;20027;-73
2022/06/18 11:55:42;;;;;;;1.63;1.20;;;;;;;;;;4970528;28;20142;-75
2022/06/18 11:58:17;;;;;;;1.38;1.27;;;;;;;;;;4969122;28;20099;-72
2022/06/18 12:00:58;;;;;;;1.25;1.10;;;;;;;;;;4970418;28;20058;-73
2022/06/18 12:03:36;;;;;;;4.20;1.25;;;;;;;;;;4970843;28;20027;-72
2022/06/18 12:06:17;;;;;;;1.20;1.10;;;;;;;;;;4968944;28;20035;-74
2022/06/18 12:08:45;;;;;;;4.68;1.50;;;;;;;;;;4968930;28;20050;-72
2022/06/18 12:11:29;;;;;;;1.30;1.20;;;;;;;;;;4968964;28;20027;-72
2022/06/18 12:14:08;;;;;;;10.25;3.22;;;;;;;;;;4968311;28;20126;-73
2022/06/18 12:16:59;;;;;;;2.90;1.20;;;;;;;;;;4969004;28;20023;-71
2022/06/18 12:19:32;;;;;;;;;;;;;;;;;;4969497;28;20427;-73
2022/06/18 12:22:21;;;;;;;3.88;1.20;;;;;;;;;;4974427;28;19929;-75
2022/06/18 12:25:08;;;;;;;1.55;1.10;;;;;;;;;;4989203;28;20026;-75
2022/06/18 12:27:44;;;;;;;1.30;1.20;;;;;;;;;;4988022;28;20030;-74
2022/06/18 12:30:28;;;;;;;3.08;1.25;;;;;;;;;;4989296;28;20023;-75
2022/06/18 12:33:18;;;;;;;4.10;1.65;;;;;;;;;;4988967;28;20045;-72
2022/06/18 12:35:52;;;;;;;1.73;1.63;;;;;;;;;;4988010;28;20503;-73
2022/06/18 12:38:42;;;;;;;1.98;1.38;;;;;;;;;;4987998;28;20034;-73
2022/06/18 12:41:40;;;;;;;1.73;1.30;;;;;;;;;;4987454;28;20372;-72
2022/06/18 12:44:21;;;;;;;3.00;1.60;;;;;;;;;;4987762;28;20054;-75
2022/06/18 12:46:56;;;;;;;4.00;1.23;;;;;;;;;;4987586;28;20045;-74
2022/06/18 12:49:37;;;;;;;4.57;1.30;;;;;;;;;;4988857;28;20042;-73
2022/06/18 12:52:18;;;;;;;3.13;1.40;;;;;;;;;;4987269;28;20026;-73
2022/06/18 12:55:00;;;;;;;4.22;1.38;;;;;;;;;;4989279;28;20517;-73
2022/06/18 12:57:55;;;;;;;2.78;2.20;;;;;;;;;;4992911;28;20057;-73
2022/06/18 13:00:46;;;;;;;2.58;1.40;;;;;;;;;;4993008;28;20033;-75
2022/06/18 13:03:56;;;;;;;7.05;1.40;;;;;;;;;;4992754;28;20061;-75
2022/06/18 13:06:52;;;;;;;3.92;1.42;;;;;;;;;;4994290;28;20202;-77
2022/06/18 13:09:43;;;;;;;4.50;1.30;;;;;;;;;;4993029;28;20041;-75
2022/06/18 13:12:36;;;;;;;4.20;1.75;;;;;;;;;;4991599;28;20018;-75
2022/06/18 13:15:18;;;;;;;3.35;1.63;;;;;;;;;;4992566;28;20083;-73
2022/06/18 13:18:01;;;;;;;8.20;1.55;;;;;;;;;;4990792;28;20141;-73
2022/06/18 13:20:38;;;;;;;3.72;1.30;;;;;;;;;;4991103;28;20497;-74
2022/06/18 13:28:10;;;;;;;4.88;1.17;;;;;;;;;;4974503;28;20482;-73
2022/06/18 13:28:54;;;;;;;3.85;1.35;;;;;;;;;;4993032;28;20097;-73
2022/06/18 13:31:19;;;;;;;4.40;1.45;;;;;;;;;;4990852;28;20042;-73
2022/06/18 13:34:00;;;;;;;4.32;1.35;;;;;;;;;;4993060;28;20053;-74
2022/06/18 13:36:36;;;;;;;10.77;2.15;;;;;;;;;;4994467;28;20431;-74
2022/06/18 13:39:24;;;;;;;4.65;1.40;;;;;;;;;;4994800;28;20073;-74
2022/06/18 13:42:18;;;;;;;3.05;1.27;;;;;;;;;;4992087;28;20121;-75
2022/06/18 13:44:47;;;;;;;6.25;1.73;;;;;;;;;;4991754;28;20046;-76
2022/06/18 13:47:36;;;;;;;3.30;1.58;;;;;;;;;;4990798;28;20041;-75
2022/06/18 13:50:24;;;;;;;3.00;1.30;;;;;;;;;;4992205;28;20033;-74
2022/06/18 13:52:49;;;;;;;5.50;1.48;;;;;;;;;;4992188;28;20035;-72
2022/06/18 13:55:30;;;;;;;5.40;1.45;;;;;;;;;;4990469;28;20152;-74
2022/06/18 13:57:56;;;;;;;1.75;1.15;;;;;;;;;;4989903;28;20458;-72
2022/06/18 14:00:25;;;;;;;2.83;1.45;;;;;;;;;;4990285;28;20030;-73
2022/06/18 14:02:56;;;;;;;;;;;;;;;;;;4990153;28;20081;-73
2022/06/18 14:05:52;;;;;;;6.47;1.30;;;;;;;;;;4990203;28;19917;-73
2022/06/18 14:08:21;;;;;;;7.35;1.45;;;;;;;;;;4990105;28;20513;-73
2022/06/18 14:10:47;;;;;;;2.30;1.58;;;;;;;;;;4989907;28;20031;-73
2022/06/18 14:13:14;;;;;;;5.85;1.50;;;;;;;;;;4989742;28;20141;-73
2022/06/18 14:15:58;;;;;;;3.38;1.42;;;;;;;;;;4989943;28;20034;-73
2022/06/18 14:18:24;;;;;;;4.07;1.60;;;;;;;;;;5005229;28;20117;-74
2022/06/18 14:21:23;;;;;;;5.72;1.45;;;;;;;;;;4991325;28;20367;-75
2022/06/18 14:23:56;;;;;;;3.20;1.40;;;;;;;;;;4970393;28;20034;-77
2022/06/18 14:26:22;;;;;;;5.53;1.75;;;;;;;;;;4973787;28;20058;-77
2022/06/18 14:28:50;;;;;;;5.57;1.58;;;;;;;;;;4972812;28;20487;-77
2022/06/18 14:31:29;;;;;;;11.88;1.88;;;;;;;;;;4972661;28;20158;-76
2022/06/18 14:34:15;;;;;;;4.10;1.38;;;;;;;;;;4971257;28;20031;-77
2022/06/18 14:36:44;;;;;;;3.15;1.40;;;;;;;;;;4970125;28;20026;-77
2022/06/18 14:39:31;;;;;;;2.10;1.40;;;;;;;;;;4970067;28;20037;-79
2022/06/18 14:42:34;;;;;;;6.05;1.45;;;;;;;;;;4971887;28;20019;-77
2022/06/18 14:45:12;;;;;;;3.30;1.33;;;;;;;;;;4969371;28;20047;-76
2022/06/18 14:48:22;;;;;;;5.70;1.52;;;;;;;;;;4971659;28;20050;-76
2022/06/18 14:51:15;;;;;;;6.18;1.48;;;;;;;;;;4971666;28;20037;-77
2022/06/18 14:54:16;;;;;;;4.82;1.40;;;;;;;;;;4971933;28;20068;-76
2022/06/18 14:57:15;;;;;;;6.72;1.58;;;;;;;;;;4878287;29;20042;-76
2022/06/18 15:00:15;;;;;;;8.50;1.65;;;;;;;;;;4985907;28;20026;-76
2022/06/18 15:03:07;;;;;;;4.22;1.58;;;;;;;;;;4985926;28;20050;-75
2022/06/18 15:05:38;;;;;;;5.25;1.85;;;;;;;;;;4985591;28;20035;-76
2022/06/18 15:08:15;;;;;;;3.38;1.20;;;;;;;;;;4969718;28;20035;-74
2022/06/18 15:10:50;;;;;;;8.07;1.52;;;;;;;;;;4972361;28;20399;-75
2022/06/18 15:13:16;;;;;;;11.18;1.90;;;;;;;;;;4969864;28;20026;-75
2022/06/18 15:16:27;;;;;;;4.72;1.95;;;;;;;;;;4969682;28;20320;-75
2022/06/18 15:21:12;;;;;;;3.45;1.90;;;;;;;;;;4970813;28;20026;-75
2022/06/18 15:26:17;;;;;;;8.85;2.22;;;;;;;;;;4970706;28;19953;-74
2022/06/18 15:28:45;;;;;;;5.65;2.20;;;;;;;;;;4969403;28;20446;-74
2022/06/18 15:31:32;;;;;;;6.45;2.05;;;;;;;;;;4970646;28;20318;-75
2022/06/18 15:34:01;;;;;;;6.97;2.30;;;;;;;;;;4970475;28;20030;-75
2022/06/18 15:36:30;;;;;;;6.13;1.92;;;;;;;;;;4970908;28;20030;-74
2022/06/18 15:38:59;;;;;;;4.25;2.00;;;;;;;;;;4969229;28;20387;-72
2022/06/18 15:41:34;;;;;;;4.65;1.73;;;;;;;;;;4970645;28;20331;-73
2022/06/18 15:44:00;;;;;;;7.88;2.20;;;;;;;;;;4969418;28;20118;-78